PWSweather.com
Personal Weather Stations
Station Observations

YeovilGB

Lat: 50.949, Lon: -2.627

Elevation: 70

Station Type: Vantage Pro

http://www.yeovil-weather.me.uk/

High Low Average
Temperature 81.2°F27.3°C 57.5°F14.2°C 69.0°F20.6°C
Dew Point 67.0°F19.4°C 55.6°F13.1°C 62.2°F16.8°C
Winds 4.6 mph 7.4 kmh Calm Calm 1.0 mph WSW1.6 kmh WSW
Wind Gusts 8.1 mph13.0 kmh -- 2.0 mph3.2 kmh
Humidity 96% 61% 80%
Pressure 30.24 in1024.0 mb 30.18 in1022.0 mb -
Precipitation 0.00 in0.0 mm - -
Hour Temp Dew Point Humidity Winds Wind Gusts Pressure Precip Precip Rate Daily Precip Total
12:00 AM 58.7°F14.8°C 56.4°F13.6°C 92% 2.3 mph SW3.7 kmh SW 5.8 mph9.3 kmh 30.18 in1022.0 mb - 0.00 in0.0 mm 0.00 in0.0 mm
12:10 AM 59.2°F15.1°C 56.9°F13.8°C 92% Calm Calm -- 30.18 in1022.0 mb - 0.00 in0.0 mm 0.00 in0.0 mm
12:20 AM 59.4°F15.2°C 57.1°F13.9°C 92% 1.2 mph SW1.9 kmh SW 4.6 mph7.4 kmh 30.18 in1022.0 mb - 0.00 in0.0 mm 0.00 in0.0 mm
12:30 AM 59.5°F15.3°C 57.2°F14.0°C 92% 2.3 mph SW3.7 kmh SW 4.6 mph7.4 kmh 30.18 in1022.0 mb - 0.00 in0.0 mm 0.00 in0.0 mm
12:40 AM 59.6°F15.3°C 57.3°F14.1°C 92% 1.2 mph SW1.9 kmh SW 1.2 mph1.9 kmh 30.18 in1022.0 mb - 0.00 in0.0 mm 0.00 in0.0 mm
12:50 AM 59.6°F15.3°C 57.3°F14.1°C 92% Calm Calm -- 30.19 in1022.4 mb - 0.00 in0.0 mm 0.00 in0.0 mm
01:00 AM 59.7°F15.4°C 57.4°F14.1°C 92% Calm Calm -- 30.19 in1022.4 mb - 0.00 in0.0 mm 0.00 in0.0 mm
01:10 AM 59.6°F15.3°C 57.3°F14.1°C 92% Calm Calm -- 30.19 in1022.4 mb - 0.00 in0.0 mm 0.00 in0.0 mm
01:20 AM 59.5°F15.3°C 57.2°F14.0°C 92% Calm Calm 2.3 mph3.7 kmh 30.19 in1022.4 mb - 0.00 in0.0 mm 0.00 in0.0 mm
01:30 AM 59.5°F15.3°C 57.2°F14.0°C 92% Calm Calm -- 30.18 in1022.0 mb - 0.00 in0.0 mm 0.00 in0.0 mm
01:40 AM 59.4°F15.2°C 57.1°F13.9°C 92% Calm Calm -- 30.19 in1022.4 mb - 0.00 in0.0 mm 0.00 in0.0 mm
01:50 AM 59.3°F15.2°C 57.0°F13.9°C 92% Calm Calm -- 30.19 in1022.4 mb - 0.00 in0.0 mm 0.00 in0.0 mm
02:00 AM 59.4°F15.2°C 57.4°F14.1°C 93% Calm Calm -- 30.18 in1022.0 mb - 0.00 in0.0 mm 0.00 in0.0 mm
02:10 AM 59.3°F15.2°C 57.3°F14.1°C 93% Calm Calm -- 30.19 in1022.4 mb - 0.00 in0.0 mm 0.00 in0.0 mm
02:20 AM 59.3°F15.2°C 57.3°F14.1°C 93% Calm Calm -- 30.19 in1022.4 mb - 0.00 in0.0 mm 0.00 in0.0 mm
02:30 AM 59.1°F15.1°C 57.1°F13.9°C 93% Calm Calm -- 30.19 in1022.4 mb - 0.00 in0.0 mm 0.00 in0.0 mm
02:40 AM 59.0°F15.0°C 57.0°F13.9°C 93% Calm Calm -- 30.19 in1022.4 mb - 0.00 in0.0 mm 0.00 in0.0 mm
02:50 AM 58.8°F14.9°C 56.8°F13.8°C 93% Calm Calm -- 30.19 in1022.4 mb - 0.00 in0.0 mm 0.00 in0.0 mm
03:00 AM 58.5°F14.7°C 56.5°F13.6°C 93% Calm Calm -- 30.19 in1022.4 mb - 0.00 in0.0 mm 0.00 in0.0 mm
03:10 AM 58.2°F14.6°C 55.9°F13.3°C 92% Calm Calm -- 30.19 in1022.4 mb - 0.00 in0.0 mm 0.00 in0.0 mm
03:20 AM 58.1°F14.5°C 56.1°F13.4°C 93% Calm Calm -- 30.19 in1022.4 mb - 0.00 in0.0 mm 0.00 in0.0 mm
03:30 AM 58.1°F14.5°C 56.4°F13.6°C 94% Calm Calm 1.2 mph1.9 kmh 30.19 in1022.4 mb - 0.00 in0.0 mm 0.00 in0.0 mm
03:40 AM 58.4°F14.7°C 56.7°F13.7°C 94% Calm Calm -- 30.18 in1022.0 mb - 0.00 in0.0 mm 0.00 in0.0 mm
03:50 AM 58.7°F14.8°C 57.0°F13.9°C 94% Calm Calm 1.2 mph1.9 kmh 30.18 in1022.0 mb - 0.00 in0.0 mm 0.00 in0.0 mm
04:00 AM 58.7°F14.8°C 57.0°F13.9°C 94% Calm Calm -- 30.18 in1022.0 mb - 0.00 in0.0 mm 0.00 in0.0 mm
04:10 AM 58.6°F14.8°C 56.9°F13.8°C 94% Calm Calm -- 30.18 in1022.0 mb - 0.00 in0.0 mm 0.00 in0.0 mm
04:20 AM 58.5°F14.7°C 56.7°F13.7°C 94% Calm Calm -- 30.19 in1022.4 mb - 0.00 in0.0 mm 0.00 in0.0 mm
04:30 AM 58.2°F14.6°C 56.5°F13.6°C 94% Calm Calm -- 30.19 in1022.4 mb - 0.00 in0.0 mm 0.00 in0.0 mm
04:40 AM 57.9°F14.4°C 55.9°F13.3°C 93% Calm Calm -- 30.19 in1022.4 mb - 0.00 in0.0 mm 0.00 in0.0 mm
04:50 AM 57.6°F14.2°C 55.6°F13.1°C 93% Calm Calm -- 30.19 in1022.4 mb - 0.00 in0.0 mm 0.00 in0.0 mm
05:00 AM 57.5°F14.2°C 55.8°F13.2°C 94% Calm Calm -- 30.20 in1022.7 mb - 0.00 in0.0 mm 0.00 in0.0 mm
05:10 AM 57.6°F14.2°C 55.9°F13.3°C 94% Calm Calm -- 30.20 in1022.7 mb - 0.00 in0.0 mm 0.00 in0.0 mm
05:20 AM 57.5°F14.2°C 55.8°F13.2°C 94% Calm Calm -- 30.20 in1022.7 mb - 0.00 in0.0 mm 0.00 in0.0 mm
05:30 AM 57.8°F14.3°C 56.4°F13.6°C 95% Calm Calm -- 30.20 in1022.7 mb - 0.00 in0.0 mm 0.00 in0.0 mm
05:40 AM 58.3°F14.6°C 56.8°F13.8°C 95% Calm Calm 3.5 mph5.6 kmh 30.20 in1022.7 mb - 0.00 in0.0 mm 0.00 in0.0 mm
05:50 AM 59.3°F15.2°C 58.2°F14.6°C 96% 1.2 mph SW1.9 kmh SW 1.2 mph1.9 kmh 30.20 in1022.7 mb - 0.00 in0.0 mm 0.00 in0.0 mm
06:00 AM 59.9°F15.5°C 58.5°F14.7°C 95% Calm Calm -- 30.21 in1023.0 mb - 0.00 in0.0 mm 0.00 in0.0 mm
06:10 AM 60.3°F15.7°C 58.9°F14.9°C 95% Calm Calm -- 30.21 in1023.0 mb - 0.00 in0.0 mm 0.00 in0.0 mm
06:20 AM 60.7°F15.9°C 59.3°F15.2°C 95% Calm Calm 2.3 mph3.7 kmh 30.21 in1023.0 mb - 0.00 in0.0 mm 0.00 in0.0 mm
06:30 AM 61.0°F16.1°C 59.3°F15.2°C 94% Calm Calm -- 30.22 in1023.4 mb - 0.00 in0.0 mm 0.00 in0.0 mm
06:40 AM 61.3°F16.3°C 59.6°F15.3°C 94% Calm Calm -- 30.22 in1023.4 mb - 0.00 in0.0 mm 0.00 in0.0 mm
06:50 AM 61.6°F16.4°C 59.5°F15.3°C 93% Calm Calm -- 30.23 in1023.7 mb - 0.00 in0.0 mm 0.00 in0.0 mm
07:00 AM 61.8°F16.6°C 59.5°F15.3°C 92% Calm Calm -- 30.23 in1023.7 mb - 0.00 in0.0 mm 0.00 in0.0 mm
07:10 AM 62.0°F16.7°C 59.4°F15.2°C 91% 2.3 mph SW3.7 kmh SW 5.8 mph9.3 kmh 30.23 in1023.7 mb - 0.00 in0.0 mm 0.00 in0.0 mm
07:20 AM 62.4°F16.9°C 59.7°F15.4°C 91% 1.2 mph SW1.9 kmh SW 4.6 mph7.4 kmh 30.23 in1023.7 mb - 0.00 in0.0 mm 0.00 in0.0 mm
07:30 AM 62.8°F17.1°C 59.8°F15.4°C 90% Calm Calm 1.2 mph1.9 kmh 30.23 in1023.7 mb - 0.00 in0.0 mm 0.00 in0.0 mm
07:40 AM 63.2°F17.3°C 59.9°F15.5°C 89% 2.3 mph WSW3.7 kmh WSW 4.6 mph7.4 kmh 30.23 in1023.7 mb - 0.00 in0.0 mm 0.00 in0.0 mm
07:50 AM 63.7°F17.6°C 60.1°F15.6°C 88% 1.2 mph SSW1.9 kmh SSW 5.8 mph9.3 kmh 30.23 in1023.7 mb - 0.00 in0.0 mm 0.00 in0.0 mm
08:00 AM 64.2°F17.9°C 60.2°F15.7°C 87% Calm Calm -- 30.23 in1023.7 mb - 0.00 in0.0 mm 0.00 in0.0 mm
08:10 AM 64.9°F18.3°C 60.6°F15.9°C 86% 2.3 mph SW3.7 kmh SW 4.6 mph7.4 kmh 30.23 in1023.7 mb - 0.00 in0.0 mm 0.00 in0.0 mm
08:20 AM 65.3°F18.5°C 60.7°F15.9°C 85% Calm Calm 3.5 mph5.6 kmh 30.24 in1024.0 mb - 0.00 in0.0 mm 0.00 in0.0 mm
08:30 AM 65.8°F18.8°C 60.8°F16.0°C 84% 2.3 mph SW3.7 kmh SW 4.6 mph7.4 kmh 30.24 in1024.0 mb - 0.00 in0.0 mm 0.00 in0.0 mm
08:40 AM 66.3°F19.1°C 61.3°F16.3°C 84% 2.3 mph SW3.7 kmh SW 3.5 mph5.6 kmh 30.24 in1024.0 mb - 0.00 in0.0 mm 0.00 in0.0 mm
08:50 AM 66.8°F19.3°C 61.5°F16.4°C 83% Calm Calm 3.5 mph5.6 kmh 30.24 in1024.0 mb - 0.00 in0.0 mm 0.00 in0.0 mm
09:00 AM 67.2°F19.6°C 61.5°F16.4°C 82% 1.2 mph SW1.9 kmh SW 1.2 mph1.9 kmh 30.24 in1024.0 mb - 0.00 in0.0 mm 0.00 in0.0 mm
09:10 AM 67.7°F19.8°C 62.0°F16.7°C 82% Calm Calm 5.8 mph9.3 kmh 30.24 in1024.0 mb - 0.00 in0.0 mm 0.00 in0.0 mm
09:20 AM 68.5°F20.3°C 62.4°F16.9°C 81% 1.2 mph S1.9 kmh S 5.8 mph9.3 kmh 30.24 in1024.0 mb - 0.00 in0.0 mm 0.00 in0.0 mm
09:30 AM 70.3°F21.3°C 63.1°F17.3°C 78% Calm Calm 3.5 mph5.6 kmh 30.24 in1024.0 mb - 0.00 in0.0 mm 0.00 in0.0 mm
09:40 AM 71.0°F21.7°C 63.1°F17.3°C 76% Calm Calm 4.6 mph7.4 kmh 30.24 in1024.0 mb - 0.00 in0.0 mm 0.00 in0.0 mm
09:50 AM 71.8°F22.1°C 63.4°F17.4°C 75% 2.3 mph S3.7 kmh S 4.6 mph7.4 kmh 30.24 in1024.0 mb - 0.00 in0.0 mm 0.00 in0.0 mm
10:00 AM 72.3°F22.4°C 63.5°F17.5°C 74% 3.5 mph S5.6 kmh S 4.6 mph7.4 kmh 30.24 in1024.0 mb - 0.00 in0.0 mm 0.00 in0.0 mm
10:10 AM 72.6°F22.6°C 63.8°F17.7°C 74% 3.5 mph S5.6 kmh S 6.9 mph11.1 kmh 30.24 in1024.0 mb - 0.00 in0.0 mm 0.00 in0.0 mm
10:20 AM 72.6°F22.6°C 63.5°F17.5°C 73% 1.2 mph S1.9 kmh S -- 30.24 in1024.0 mb - 0.00 in0.0 mm 0.00 in0.0 mm
10:30 AM 73.2°F22.9°C 64.0°F17.8°C 73% 1.2 mph S1.9 kmh S 4.6 mph7.4 kmh 30.24 in1024.0 mb - 0.00 in0.0 mm 0.00 in0.0 mm
10:40 AM 73.9°F23.3°C 63.9°F17.7°C 71% 3.5 mph SSW5.6 kmh SSW 6.9 mph11.1 kmh 30.24 in1024.0 mb - 0.00 in0.0 mm 0.00 in0.0 mm
10:50 AM 74.4°F23.6°C 64.4°F18.0°C 71% 1.2 mph SW1.9 kmh SW 5.8 mph9.3 kmh 30.24 in1024.0 mb - 0.00 in0.0 mm 0.00 in0.0 mm
11:00 AM 74.2°F23.4°C 64.2°F17.9°C 71% 2.3 mph SSW3.7 kmh SSW 8.1 mph13.0 kmh 30.24 in1024.0 mb - 0.00 in0.0 mm 0.00 in0.0 mm
11:10 AM 74.4°F23.6°C 64.4°F18.0°C 71% Calm Calm 2.3 mph3.7 kmh 30.24 in1024.0 mb - 0.00 in0.0 mm 0.00 in0.0 mm
11:20 AM 75.2°F24.0°C 64.8°F18.2°C 70% Calm Calm 2.3 mph3.7 kmh 30.24 in1024.0 mb - 0.00 in0.0 mm 0.00 in0.0 mm
11:30 AM 75.2°F24.0°C 64.7°F18.2°C 70% 1.2 mph SW1.9 kmh SW 8.1 mph13.0 kmh 30.24 in1024.0 mb - 0.00 in0.0 mm 0.00 in0.0 mm
11:40 AM 74.8°F23.8°C 64.8°F18.2°C 71% 2.3 mph SW3.7 kmh SW 8.1 mph13.0 kmh 30.24 in1024.0 mb - 0.00 in0.0 mm 0.00 in0.0 mm
11:50 AM 75.5°F24.2°C 65.0°F18.3°C 70% 2.3 mph SSW3.7 kmh SSW 8.1 mph13.0 kmh 30.23 in1023.7 mb - 0.00 in0.0 mm 0.00 in0.0 mm
12:00 PM 75.8°F24.3°C 64.9°F18.3°C 69% 1.2 mph SW1.9 kmh SW 3.5 mph5.6 kmh 30.23 in1023.7 mb - 0.00 in0.0 mm 0.00 in0.0 mm
12:10 PM 76.0°F24.4°C 65.1°F18.4°C 69% 1.2 mph S1.9 kmh S 1.2 mph1.9 kmh 30.23 in1023.7 mb - 0.00 in0.0 mm 0.00 in0.0 mm
12:20 PM 76.5°F24.7°C 65.1°F18.4°C 68% Calm Calm -- 30.23 in1023.7 mb - 0.00 in0.0 mm 0.00 in0.0 mm
12:30 PM 77.0°F25.0°C 66.4°F19.1°C 70% 1.2 mph SW1.9 kmh SW 5.8 mph9.3 kmh 30.23 in1023.7 mb - 0.00 in0.0 mm 0.00 in0.0 mm
12:40 PM 77.1°F25.1°C 65.3°F18.5°C 67% Calm Calm -- 30.23 in1023.7 mb - 0.00 in0.0 mm 0.00 in0.0 mm
12:50 PM 77.7°F25.4°C 65.4°F18.6°C 66% 1.2 mph S1.9 kmh S 2.3 mph3.7 kmh 30.23 in1023.7 mb - 0.00 in0.0 mm 0.00 in0.0 mm
01:00 PM 78.1°F25.6°C 65.8°F18.8°C 66% Calm Calm 3.5 mph5.6 kmh 30.23 in1023.7 mb - 0.00 in0.0 mm 0.00 in0.0 mm
01:10 PM 78.2°F25.7°C 65.9°F18.8°C 66% 3.5 mph S5.6 kmh S 5.8 mph9.3 kmh 30.22 in1023.4 mb - 0.00 in0.0 mm 0.00 in0.0 mm
01:20 PM 78.5°F25.8°C 66.2°F19.0°C 66% 1.2 mph SW1.9 kmh SW 4.6 mph7.4 kmh 30.22 in1023.4 mb - 0.00 in0.0 mm 0.00 in0.0 mm
01:30 PM 78.9°F26.1°C 66.1°F18.9°C 65% 1.2 mph SW1.9 kmh SW 1.2 mph1.9 kmh 30.22 in1023.4 mb - 0.00 in0.0 mm 0.00 in0.0 mm
01:40 PM 79.1°F26.2°C 65.9°F18.8°C 64% Calm Calm 1.2 mph1.9 kmh 30.22 in1023.4 mb - 0.00 in0.0 mm 0.00 in0.0 mm
01:50 PM 79.3°F26.3°C 66.5°F19.2°C 65% 3.5 mph WSW5.6 kmh WSW 5.8 mph9.3 kmh 30.22 in1023.4 mb - 0.00 in0.0 mm 0.00 in0.0 mm
02:00 PM 79.2°F26.2°C 66.4°F19.1°C 65% 3.5 mph SSW5.6 kmh SSW 6.9 mph11.1 kmh 30.22 in1023.4 mb - 0.00 in0.0 mm 0.00 in0.0 mm
02:10 PM 79.8°F26.6°C 67.0°F19.4°C 65% 3.5 mph SW5.6 kmh SW 8.1 mph13.0 kmh 30.22 in1023.4 mb - 0.00 in0.0 mm 0.00 in0.0 mm
02:20 PM 80.5°F26.9°C 66.8°F19.3°C 63% 1.2 mph SSE1.9 kmh SSE 4.6 mph7.4 kmh 30.21 in1023.0 mb - 0.00 in0.0 mm 0.00 in0.0 mm
02:30 PM 80.7°F27.1°C 66.5°F19.2°C 62% 1.2 mph SW1.9 kmh SW 2.3 mph3.7 kmh 30.21 in1023.0 mb - 0.00 in0.0 mm 0.00 in0.0 mm
02:40 PM 80.8°F27.1°C 67.0°F19.4°C 63% 1.2 mph S1.9 kmh S 3.5 mph5.6 kmh 30.21 in1023.0 mb - 0.00 in0.0 mm 0.00 in0.0 mm
02:50 PM 80.7°F27.1°C 66.5°F19.2°C 62% 1.2 mph S1.9 kmh S 4.6 mph7.4 kmh 30.21 in1023.0 mb - 0.00 in0.0 mm 0.00 in0.0 mm
03:00 PM 80.8°F27.1°C 66.5°F19.2°C 62% 2.3 mph SE3.7 kmh SE 4.6 mph7.4 kmh 30.21 in1023.0 mb - 0.00 in0.0 mm 0.00 in0.0 mm
03:10 PM 80.6°F27.0°C 66.4°F19.1°C 62% 1.2 mph SW1.9 kmh SW 3.5 mph5.6 kmh 30.21 in1023.0 mb - 0.00 in0.0 mm 0.00 in0.0 mm
03:20 PM 80.9°F27.2°C 66.2°F19.0°C 61% 2.3 mph WSW3.7 kmh WSW 5.8 mph9.3 kmh 30.21 in1023.0 mb - 0.00 in0.0 mm 0.00 in0.0 mm
03:30 PM 80.4°F26.9°C 65.7°F18.7°C 61% Calm Calm 3.5 mph5.6 kmh 30.21 in1023.0 mb - 0.00 in0.0 mm 0.00 in0.0 mm
03:40 PM 80.7°F27.1°C 66.0°F18.9°C 61% 2.3 mph WNW3.7 kmh WNW 6.9 mph11.1 kmh 30.21 in1023.0 mb - 0.00 in0.0 mm 0.00 in0.0 mm
03:50 PM 80.8°F27.1°C 66.1°F18.9°C 61% 1.2 mph SSW1.9 kmh SSW 6.9 mph11.1 kmh 30.21 in1023.0 mb - 0.00 in0.0 mm 0.00 in0.0 mm
04:00 PM 81.2°F27.3°C 66.5°F19.2°C 61% 4.6 mph WNW7.4 kmh WNW 5.8 mph9.3 kmh 30.21 in1023.0 mb - 0.00 in0.0 mm 0.00 in0.0 mm
04:10 PM 80.9°F27.2°C 66.2°F19.0°C 61% Calm Calm -- 30.21 in1023.0 mb - 0.00 in0.0 mm 0.00 in0.0 mm
04:20 PM 80.6°F27.0°C 66.4°F19.1°C 62% 1.2 mph NW1.9 kmh NW 4.6 mph7.4 kmh 30.21 in1023.0 mb - 0.00 in0.0 mm 0.00 in0.0 mm
04:30 PM 80.1°F26.7°C 65.9°F18.8°C 62% Calm Calm -- 30.21 in1023.0 mb - 0.00 in0.0 mm 0.00 in0.0 mm
04:40 PM 79.8°F26.6°C 66.1°F18.9°C 63% Calm Calm -- 30.21 in1023.0 mb - 0.00 in0.0 mm 0.00 in0.0 mm
04:50 PM 79.5°F26.4°C 66.3°F19.1°C 64% Calm Calm -- 30.20 in1022.7 mb - 0.00 in0.0 mm 0.00 in0.0 mm
05:00 PM 79.2°F26.2°C 66.0°F18.9°C 64% Calm Calm -- 30.20 in1022.7 mb - 0.00 in0.0 mm 0.00 in0.0 mm
05:10 PM 78.8°F26.0°C 66.0°F18.9°C 65% Calm Calm -- 30.21 in1023.0 mb - 0.00 in0.0 mm 0.00 in0.0 mm
05:20 PM 78.5°F25.8°C 65.7°F18.7°C 65% 1.2 mph NNW1.9 kmh NNW 3.5 mph5.6 kmh 30.21 in1023.0 mb - 0.00 in0.0 mm 0.00 in0.0 mm
05:30 PM 78.1°F25.6°C 65.8°F18.8°C 66% Calm Calm -- 30.21 in1023.0 mb - 0.00 in0.0 mm 0.00 in0.0 mm
05:40 PM 77.8°F25.4°C 66.0°F18.9°C 67% 3.5 mph NW5.6 kmh NW 4.6 mph7.4 kmh 30.22 in1023.4 mb - 0.00 in0.0 mm 0.00 in0.0 mm
05:50 PM 77.4°F25.2°C 65.6°F18.7°C 67% Calm Calm 1.2 mph1.9 kmh 30.21 in1023.0 mb - 0.00 in0.0 mm 0.00 in0.0 mm
06:00 PM 77.1°F25.1°C 65.7°F18.7°C 68% Calm Calm -- 30.21 in1023.0 mb - 0.00 in0.0 mm 0.00 in0.0 mm
06:10 PM 77.1°F25.1°C 65.7°F18.7°C 68% Calm Calm -- 30.21 in1023.0 mb - 0.00 in0.0 mm 0.00 in0.0 mm
06:20 PM 76.9°F24.9°C 65.5°F18.6°C 68% Calm Calm -- 30.21 in1023.0 mb - 0.00 in0.0 mm 0.00 in0.0 mm
06:30 PM 76.6°F24.8°C 65.3°F18.5°C 68% Calm Calm -- 30.21 in1023.0 mb - 0.00 in0.0 mm 0.00 in0.0 mm
06:40 PM 76.3°F24.6°C 65.4°F18.6°C 69% Calm Calm 1.2 mph1.9 kmh 30.21 in1023.0 mb - 0.00 in0.0 mm 0.00 in0.0 mm
06:50 PM 75.9°F24.4°C 65.4°F18.6°C 70% Calm Calm 1.2 mph1.9 kmh 30.21 in1023.0 mb - 0.00 in0.0 mm 0.00 in0.0 mm
07:00 PM 75.4°F24.1°C 65.3°F18.5°C 71% Calm Calm -- 30.21 in1023.0 mb - 0.00 in0.0 mm 0.00 in0.0 mm
07:10 PM 75.0°F23.9°C 65.0°F18.3°C 71% Calm Calm -- 30.21 in1023.0 mb - 0.00 in0.0 mm 0.00 in0.0 mm
07:20 PM 74.6°F23.7°C 65.0°F18.3°C 72% Calm Calm -- 30.21 in1023.0 mb - 0.00 in0.0 mm 0.00 in0.0 mm
07:30 PM 74.3°F23.5°C 65.1°F18.4°C 73% Calm Calm -- 30.21 in1023.0 mb - 0.00 in0.0 mm 0.00 in0.0 mm
07:40 PM 73.9°F23.3°C 65.5°F18.6°C 75% Calm Calm -- 30.21 in1023.0 mb - 0.00 in0.0 mm 0.00 in0.0 mm
07:50 PM 73.4°F23.0°C 65.7°F18.7°C 77% Calm Calm -- 30.22 in1023.4 mb - 0.00 in0.0 mm 0.00 in0.0 mm
08:00 PM 72.7°F22.6°C 65.8°F18.8°C 79% Calm Calm -- 30.22 in1023.4 mb - 0.00 in0.0 mm 0.00 in0.0 mm
08:10 PM 72.1°F22.3°C 65.6°F18.7°C 80% Calm Calm -- 30.22 in1023.4 mb - 0.00 in0.0 mm 0.00 in0.0 mm
08:20 PM 71.6°F22.0°C 65.5°F18.6°C 81% Calm Calm 2.3 mph3.7 kmh 30.22 in1023.4 mb - 0.00 in0.0 mm 0.00 in0.0 mm
08:40 PM 70.5°F21.4°C 65.1°F18.4°C 83% Calm Calm 1.2 mph1.9 kmh 30.22 in1023.4 mb - 0.00 in0.0 mm 0.00 in0.0 mm
08:50 PM 69.9°F21.1°C 64.8°F18.2°C 84% Calm Calm 1.2 mph1.9 kmh 30.22 in1023.4 mb - 0.00 in0.0 mm 0.00 in0.0 mm
09:00 PM 69.4°F20.8°C 64.7°F18.2°C 85% Calm Calm -- 30.22 in1023.4 mb - 0.00 in0.0 mm 0.00 in0.0 mm
09:10 PM 68.9°F20.5°C 64.2°F17.9°C 85% Calm Calm -- 30.23 in1023.7 mb - 0.00 in0.0 mm 0.00 in0.0 mm
09:20 PM 68.4°F20.2°C 64.0°F17.8°C 86% Calm Calm -- 30.23 in1023.7 mb - 0.00 in0.0 mm 0.00 in0.0 mm
09:30 PM 68.0°F20.0°C 63.6°F17.6°C 86% Calm Calm -- 30.23 in1023.7 mb - 0.00 in0.0 mm 0.00 in0.0 mm
09:40 PM 67.6°F19.8°C 63.3°F17.4°C 86% Calm Calm -- 30.24 in1024.0 mb - 0.00 in0.0 mm 0.00 in0.0 mm
09:50 PM 67.3°F19.6°C 63.3°F17.4°C 87% Calm Calm 1.2 mph1.9 kmh 30.24 in1024.0 mb - 0.00 in0.0 mm 0.00 in0.0 mm
10:00 PM 66.9°F19.4°C 62.9°F17.2°C 87% Calm Calm -- 30.24 in1024.0 mb - 0.00 in0.0 mm 0.00 in0.0 mm
10:10 PM 66.7°F19.3°C 63.0°F17.2°C 88% 1.2 mph NW1.9 kmh NW 4.6 mph7.4 kmh 30.24 in1024.0 mb - 0.00 in0.0 mm 0.00 in0.0 mm
10:20 PM 66.5°F19.2°C 63.2°F17.3°C 89% Calm Calm 1.2 mph1.9 kmh 30.24 in1024.0 mb - 0.00 in0.0 mm 0.00 in0.0 mm
10:30 PM 66.3°F19.1°C 63.3°F17.4°C 90% Calm Calm 2.3 mph3.7 kmh 30.24 in1024.0 mb - 0.00 in0.0 mm 0.00 in0.0 mm
10:40 PM 66.1°F18.9°C 63.1°F17.3°C 90% Calm Calm 3.5 mph5.6 kmh 30.24 in1024.0 mb - 0.00 in0.0 mm 0.00 in0.0 mm
10:50 PM 65.9°F18.8°C 63.2°F17.3°C 91% Calm Calm -- 30.24 in1024.0 mb - 0.00 in0.0 mm 0.00 in0.0 mm
11:00 PM 65.7°F18.7°C 63.0°F17.2°C 91% Calm Calm -- 30.24 in1024.0 mb - 0.00 in0.0 mm 0.00 in0.0 mm
11:10 PM 65.4°F18.6°C 62.7°F17.1°C 91% Calm Calm -- 30.24 in1024.0 mb - 0.00 in0.0 mm 0.00 in0.0 mm
11:20 PM 65.2°F18.4°C 62.8°F17.1°C 92% Calm Calm -- 30.24 in1024.0 mb - 0.00 in0.0 mm 0.00 in0.0 mm
11:30 PM 65.0°F18.3°C 62.6°F17.0°C 92% Calm Calm -- 30.23 in1023.7 mb - 0.00 in0.0 mm 0.00 in0.0 mm
11:40 PM 65.0°F18.3°C 62.9°F17.2°C 93% Calm Calm -- 30.23 in1023.7 mb - 0.00 in0.0 mm 0.00 in0.0 mm
11:50 PM 65.1°F18.4°C 63.0°F17.2°C 93% Calm Calm -- 30.23 in1023.7 mb - 0.00 in0.0 mm 0.00 in0.0 mm